Thunder radar more information blitzortung!


Radar de pluja more information rain snow radar


Visita la nostra xarxa de llocs de meteo:

Template documentation
and downloads

And another site



No particular awareness of the weather is required.    There are no Weather-warnings

Pagina Historial Weather Underground text

Diari Resum Setembre 2, 2017 Unitats:  Mètric    Imperial   Tant
« Previous Dia
SegĂźent Dia »
Diari Setmana Mensual Anual Personalitzada
  Maxima: Minima: Media:
Temperatura: 29.8 °C 14.4 °C 22.6 °C
Punt de rosada: 14.7 °C 5.8 °C 8.7 °C
Humitat: 68 % 23 % 44 %
Wind Speed: 20.4 km/h 0.0 km/h 7.2 km/h
RĂ fegues de vent: 20.4 km/h - -
Vent:- - SSE
Pression baro: 1019.9 hPa 1014.8 hPa -
Precipitacions: 0.0 mm    
Historical Graphs
 
 
Dades de taula per Setembre 2, 2017
Temps Temperatura Punt de rosada Pression baro Vent Wind Speed RĂ fegues de vent Humitat Rainfall Rate (Hourly)
00:00 16.6 °C 8.3 °C 1017.8 hPa WSW 3.2 km/h 4.8 km/h 58 % 0.0 mm
00:02 21.3 °C 14.7 °C 1016.8 hPa ESE 3.9 km/h 5.3 km/h 66 % 0.0 mm
00:10 16.5 °C 8.2 °C 1017.8 hPa Calm   1.6 km/h 58 % 0.0 mm
00:20 16.4 °C 8.1 °C 1017.8 hPa WSW 1.6 km/h 3.2 km/h 58 % 0.0 mm
00:30 16.2 °C 7.9 °C 1017.8 hPa Calm     58 % 0.0 mm
00:40 16.1 °C 8.1 °C 1017.8 hPa SW 1.6 km/h 1.6 km/h 59 % 0.0 mm
00:50 16.0 °C 8.0 °C 1017.8 hPa WSW 1.6 km/h 3.2 km/h 59 % 0.0 mm
01:00 16.0 °C 8.0 °C 1017.8 hPa WSW 3.2 km/h 3.2 km/h 59 % 0.0 mm
01:10 15.8 °C 7.8 °C 1017.8 hPa Calm   3.2 km/h 59 % 0.0 mm
01:20 15.8 °C 7.8 °C 1017.8 hPa Calm     59 % 0.0 mm
01:30 15.6 °C 7.6 °C 1018.8 hPa SE 1.6 km/h 3.2 km/h 59 % 0.0 mm
01:40 15.4 °C 7.4 °C 1018.8 hPa SW 1.6 km/h 3.2 km/h 59 % 0.0 mm
01:50 15.4 °C 7.7 °C 1017.8 hPa Calm   4.8 km/h 60 % 0.0 mm
02:00 15.2 °C 7.5 °C 1017.8 hPa WSW 1.6 km/h 3.2 km/h 60 % 0.0 mm
02:10 15.1 °C 7.4 °C 1017.8 hPa WSW 1.6 km/h 3.2 km/h 60 % 0.0 mm
02:20 15.1 °C 7.4 °C 1017.8 hPa Calm   3.2 km/h 60 % 0.0 mm
02:30 15.0 °C 7.6 °C 1017.8 hPa Calm   4.8 km/h 61 % 0.0 mm
02:40 14.9 °C 7.4 °C 1017.8 hPa WSW 3.2 km/h 3.2 km/h 61 % 0.0 mm
02:50 14.9 °C 7.4 °C 1017.8 hPa WSW 3.2 km/h 4.8 km/h 61 % 0.0 mm
03:00 14.7 °C 7.3 °C 1016.8 hPa West 1.6 km/h 1.6 km/h 61 % 0.0 mm
03:10 14.5 °C 7.1 °C 1016.8 hPa SW 1.6 km/h 3.2 km/h 61 % 0.0 mm
03:20 14.4 °C 6.9 °C 1016.8 hPa SW 1.6 km/h 3.2 km/h 61 % 0.0 mm
03:30 14.4 °C 7.2 °C 1017.8 hPa Calm   1.6 km/h 62 % 0.0 mm
03:40 14.4 °C 7.2 °C 1017.8 hPa West 1.6 km/h 1.6 km/h 62 % 0.0 mm
03:50 14.5 °C 7.6 °C 1017.8 hPa West 1.6 km/h 3.2 km/h 63 % 0.0 mm
04:00 14.8 °C 7.6 °C 1017.8 hPa WSW 1.6 km/h 3.2 km/h 62 % 0.0 mm
04:10 15.1 °C 7.9 °C 1017.8 hPa Calm   1.6 km/h 62 % 0.0 mm
04:20 16.0 °C 8.7 °C 1018.8 hPa SW 1.6 km/h 3.2 km/h 62 % 0.0 mm
04:30 15.8 °C 8.3 °C 1018.8 hPa WSW 1.6 km/h 4.8 km/h 61 % 0.0 mm
04:40 16.5 °C 8.9 °C 1018.8 hPa WSW 1.6 km/h 1.6 km/h 61 % 0.0 mm
04:50 16.9 °C 9.1 °C 1018.8 hPa NW 1.6 km/h 4.8 km/h 60 % 0.0 mm
05:00 17.1 °C 8.8 °C 1018.8 hPa NNE 4.8 km/h 6.4 km/h 58 % 0.0 mm
05:10 17.2 °C 8.8 °C 1018.8 hPa ENE 1.6 km/h 4.8 km/h 58 % 0.0 mm
05:20 17.5 °C 9.2 °C 1018.8 hPa ENE 3.2 km/h 3.2 km/h 58 % 0.0 mm
05:30 17.9 °C 9.3 °C 1018.8 hPa ENE 1.6 km/h 4.8 km/h 57 % 0.0 mm
05:40 18.1 °C 9.2 °C 1018.8 hPa ENE 4.8 km/h 4.8 km/h 56 % 0.0 mm
05:50 18.4 °C 9.4 °C 1018.8 hPa Calm   6.4 km/h 56 % 0.0 mm
06:00 19.6 °C 10.1 °C 1019.9 hPa SE 1.6 km/h 1.6 km/h 54 % 0.0 mm
06:10 18.9 °C 9.4 °C 1019.9 hPa East 4.8 km/h 6.4 km/h 54 % 0.0 mm
06:20 19.3 °C 9.5 °C 1019.9 hPa NE 1.6 km/h 4.8 km/h 53 % 0.0 mm
11:23 22.2 °C 11.0 °C 1019.9 hPa ENE 3.7 km/h 4.2 km/h 49 % 0.0 mm
11:24 22.2 °C 11.0 °C 1019.9 hPa ENE 3.7 km/h 4.2 km/h 49 % 0.0 mm
11:25 22.1 °C 10.6 °C 1019.9 hPa ENE 5.6 km/h 5.6 km/h 48 % 0.0 mm
11:30 22.2 °C 10.7 °C 1019.9 hPa ESE 5.6 km/h 5.6 km/h 48 % 0.0 mm
11:35 22.0 °C 10.5 °C 1019.9 hPa ENE 9.3 km/h 9.3 km/h 48 % 0.0 mm
11:40 21.6 °C 10.1 °C 1019.9 hPa East 7.4 km/h 7.4 km/h 48 % 0.0 mm
11:45 22.3 °C 10.8 °C 1019.9 hPa SSW 3.7 km/h 3.7 km/h 48 % 0.0 mm
11:50 22.5 °C 10.3 °C 1019.9 hPa ESE 7.4 km/h 7.4 km/h 46 % 0.0 mm
11:55 22.7 °C 10.5 °C 1019.9 hPa East 5.6 km/h 5.6 km/h 46 % 0.0 mm
12:00 23.2 °C 10.9 °C 1019.9 hPa NW 5.6 km/h 5.6 km/h 46 % 0.0 mm
12:05 23.8 °C 11.2 °C 1019.9 hPa South 5.6 km/h 5.6 km/h 45 % 0.0 mm
12:10 23.3 °C 10.7 °C 1019.9 hPa SW 5.6 km/h 5.6 km/h 45 % 0.0 mm
12:15 23.7 °C 11.1 °C 1019.9 hPa NE 5.6 km/h 5.6 km/h 45 % 0.0 mm
12:20 24.3 °C 10.9 °C 1019.9 hPa East 5.8 km/h 5.8 km/h 43 % 0.0 mm
12:25 23.1 °C 9.8 °C 1019.9 hPa NE 7.4 km/h 7.4 km/h 43 % 0.0 mm
12:30 23.3 °C 10.0 °C 1019.9 hPa ENE 9.3 km/h 9.3 km/h 43 % 0.0 mm
12:35 23.6 °C 10.3 °C 1019.9 hPa South 3.7 km/h 3.7 km/h 43 % 0.0 mm
12:40 24.5 °C 10.7 °C 1018.8 hPa SSW 12.6 km/h 12.6 km/h 42 % 0.0 mm
12:45 24.8 °C 11.0 °C 1018.8 hPa WSW 9.3 km/h 9.3 km/h 42 % 0.0 mm
12:50 25.5 °C 11.3 °C 1018.8 hPa NW 4.7 km/h 4.7 km/h 41 % 0.0 mm
12:55 25.6 °C 11.4 °C 1017.8 hPa NNW 5.6 km/h 5.6 km/h 41 % 0.0 mm
13:00 25.1 °C 10.6 °C 1017.8 hPa NE 7.4 km/h 7.4 km/h 40 % 0.0 mm
13:05 25.5 °C 10.9 °C 1017.8 hPa NNW 6.1 km/h 6.1 km/h 40 % 0.0 mm
13:10 25.8 °C 10.0 °C 1017.8 hPa South 3.7 km/h 3.7 km/h 37 % 0.0 mm
13:15 26.1 °C 10.7 °C 1017.8 hPa NNW 6.4 km/h 6.4 km/h 38 % 0.0 mm
13:20 26.3 °C 10.1 °C 1017.8 hPa West 9.3 km/h 9.3 km/h 36 % 0.0 mm
13:25 26.4 °C 9.7 °C 1017.8 hPa ESE 7.9 km/h 7.9 km/h 35 % 0.0 mm
13:30 26.4 °C 8.4 °C 1017.8 hPa WNW 5.6 km/h 5.6 km/h 32 % 0.0 mm
13:35 26.5 °C 8.0 °C 1017.8 hPa SW 9.5 km/h 9.5 km/h 31 % 0.0 mm
13:40 26.2 °C 7.7 °C 1017.8 hPa West 13.0 km/h 13.0 km/h 31 % 0.0 mm
13:45 26.6 °C 8.6 °C 1017.8 hPa SW 7.4 km/h 7.4 km/h 32 % 0.0 mm
13:50 26.6 °C 8.1 °C 1017.8 hPa WSW 11.1 km/h 11.1 km/h 31 % 0.0 mm
13:55 27.0 °C 7.9 °C 1017.8 hPa West 5.6 km/h 6.1 km/h 30 % 0.0 mm
14:00 26.8 °C 7.3 °C 1017.8 hPa NW 13.0 km/h 13.0 km/h 29 % 0.0 mm
14:05 27.0 °C 7.4 °C 1017.8 hPa South 5.6 km/h 5.6 km/h 29 % 0.0 mm
14:10 27.3 °C 7.7 °C 1017.8 hPa West 11.1 km/h 11.1 km/h 29 % 0.0 mm
14:15 27.3 °C 7.7 °C 1017.8 hPa WSW 13.0 km/h 13.0 km/h 29 % 0.0 mm
14:20 27.5 °C 7.3 °C 1017.8 hPa West 3.7 km/h 3.9 km/h 28 % 0.0 mm
14:25 27.7 °C 8.1 °C 1017.8 hPa WSW 10.3 km/h 10.3 km/h 29 % 0.0 mm
14:30 27.5 °C 7.3 °C 1017.8 hPa SW 9.3 km/h 9.3 km/h 28 % 0.0 mm
14:35 27.8 °C 7.6 °C 1017.8 hPa WSW 13.0 km/h 13.0 km/h 28 % 0.0 mm
14:40 28.0 °C 7.8 °C 1016.8 hPa WSW 9.7 km/h 9.7 km/h 28 % 0.0 mm
14:45 27.9 °C 7.7 °C 1016.8 hPa WSW 14.8 km/h 14.8 km/h 28 % 0.0 mm
14:50 27.8 °C 7.1 °C 1016.8 hPa West 14.5 km/h 14.5 km/h 27 % 0.0 mm
14:55 27.9 °C 7.2 °C 1016.8 hPa SSW 13.0 km/h 13.0 km/h 27 % 0.0 mm
15:00 27.7 °C 7.0 °C 1016.8 hPa West 10.0 km/h 10.0 km/h 27 % 0.0 mm
15:05 28.0 °C 7.3 °C 1016.8 hPa WSW 6.1 km/h 6.1 km/h 27 % 0.0 mm
15:10 28.0 °C 7.3 °C 1016.8 hPa West 13.0 km/h 13.0 km/h 27 % 0.0 mm
15:15 27.9 °C 7.2 °C 1016.8 hPa WSW 7.4 km/h 7.4 km/h 27 % 0.0 mm
15:20 27.8 °C 7.1 °C 1016.8 hPa SW 7.4 km/h 7.4 km/h 27 % 0.0 mm
15:25 27.9 °C 7.2 °C 1016.8 hPa WSW 13.0 km/h 13.0 km/h 27 % 0.0 mm
15:30 27.7 °C 6.4 °C 1016.8 hPa SW 13.0 km/h 13.0 km/h 26 % 0.0 mm
15:35 27.8 °C 6.6 °C 1016.8 hPa SW 9.3 km/h 9.3 km/h 26 % 0.0 mm
15:40 28.3 °C 6.9 °C 1015.8 hPa SW 9.3 km/h 9.3 km/h 26 % 0.0 mm
15:45 28.0 °C 6.1 °C 1015.8 hPa West 13.0 km/h 13.0 km/h 25 % 0.0 mm
15:50 28.1 °C 6.2 °C 1015.8 hPa SW 18.5 km/h 18.5 km/h 25 % 0.0 mm
15:55 28.3 °C 6.4 °C 1015.8 hPa SSW 11.1 km/h 11.1 km/h 25 % 0.0 mm
16:00 28.6 °C 6.6 °C 1015.8 hPa SW 14.8 km/h 14.8 km/h 25 % 0.0 mm
16:05 28.5 °C 6.6 °C 1015.8 hPa WSW 15.1 km/h 15.1 km/h 25 % 0.0 mm
16:10 28.6 °C 6.6 °C 1015.8 hPa SW 7.4 km/h 7.4 km/h 25 % 0.0 mm
16:15 28.5 °C 6.6 °C 1015.8 hPa NNW 5.8 km/h 5.8 km/h 25 % 0.0 mm
16:20 28.8 °C 6.2 °C 1015.8 hPa WNW 9.3 km/h 9.3 km/h 24 % 0.0 mm
16:25 29.0 °C 6.4 °C 1015.8 hPa West 5.6 km/h 5.6 km/h 24 % 0.0 mm
16:30 28.7 °C 6.1 °C 1015.8 hPa SSE 14.8 km/h 14.8 km/h 24 % 0.0 mm
16:35 28.8 °C 6.2 °C 1015.8 hPa WNW 5.6 km/h 5.6 km/h 24 % 0.0 mm
16:40 29.0 °C 6.4 °C 1015.8 hPa SW 11.1 km/h 11.1 km/h 24 % 0.0 mm
16:45 29.6 °C 6.9 °C 1015.8 hPa SSE 5.6 km/h 5.6 km/h 24 % 0.0 mm
16:50 29.7 °C 6.9 °C 1015.8 hPa SSW 9.3 km/h 9.3 km/h 24 % 0.0 mm
16:55 29.6 °C 6.9 °C 1015.8 hPa SW 13.0 km/h 13.0 km/h 24 % 0.0 mm
17:00 29.5 °C 6.8 °C 1015.8 hPa West 13.0 km/h 13.0 km/h 24 % 0.0 mm
17:05 29.5 °C 6.8 °C 1015.8 hPa SSW 13.0 km/h 13.0 km/h 24 % 0.0 mm
17:10 29.2 °C 5.9 °C 1015.8 hPa SW 15.8 km/h 15.8 km/h 23 % 0.0 mm
17:15 28.9 °C 6.3 °C 1015.8 hPa West 14.8 km/h 14.8 km/h 24 % 0.0 mm
17:20 29.4 °C 6.1 °C 1015.8 hPa SSW 7.4 km/h 7.4 km/h 23 % 0.0 mm
17:25 29.8 °C 7.1 °C 1014.8 hPa South 9.5 km/h 9.5 km/h 24 % 0.0 mm
17:30 29.4 °C 6.1 °C 1014.8 hPa West 13.0 km/h 13.0 km/h 23 % 0.0 mm
17:35 29.4 °C 6.1 °C 1014.8 hPa WSW 7.4 km/h 7.4 km/h 23 % 0.0 mm
17:40 29.4 °C 6.1 °C 1015.8 hPa SSW 9.3 km/h 9.3 km/h 23 % 0.0 mm
17:45 29.5 °C 6.2 °C 1015.8 hPa SW 13.0 km/h 13.0 km/h 23 % 0.0 mm
17:50 29.4 °C 6.1 °C 1015.8 hPa WSW 9.3 km/h 9.3 km/h 23 % 0.0 mm
17:55 29.3 °C 6.0 °C 1014.8 hPa SSW 13.0 km/h 13.0 km/h 23 % 0.0 mm
18:00 29.1 °C 5.8 °C 1014.8 hPa West 13.0 km/h 13.0 km/h 23 % 0.0 mm
18:05 29.3 °C 6.0 °C 1014.8 hPa WNW 7.4 km/h 7.4 km/h 23 % 0.0 mm
18:10 29.2 °C 5.9 °C 1014.8 hPa SW 5.6 km/h 5.6 km/h 23 % 0.0 mm
18:15 29.0 °C 5.8 °C 1014.8 hPa SW 13.0 km/h 13.0 km/h 23 % 0.0 mm
18:20 28.9 °C 6.3 °C 1014.8 hPa West 11.1 km/h 11.1 km/h 24 % 0.0 mm
18:25 28.9 °C 6.3 °C 1014.8 hPa WSW 9.3 km/h 9.3 km/h 24 % 0.0 mm
18:30 28.7 °C 6.1 °C 1014.8 hPa SSW 13.0 km/h 13.0 km/h 24 % 0.0 mm
18:35 28.1 °C 6.2 °C 1014.8 hPa SW 14.8 km/h 14.8 km/h 25 % 0.0 mm
18:40 27.7 °C 6.4 °C 1014.8 hPa WSW 10.3 km/h 10.3 km/h 26 % 0.0 mm
18:45 27.5 °C 6.8 °C 1014.8 hPa SW 13.0 km/h 13.0 km/h 27 % 0.0 mm
18:50 27.3 °C 6.7 °C 1014.8 hPa SSW 5.6 km/h 5.6 km/h 27 % 0.0 mm
18:55 27.2 °C 6.6 °C 1015.8 hPa SW 9.3 km/h 9.3 km/h 27 % 0.0 mm
19:00 26.4 °C 6.4 °C 1015.8 hPa SSW 5.6 km/h 6.4 km/h 28 % 0.0 mm
19:05 26.1 °C 6.7 °C 1015.8 hPa SSW 13.0 km/h 13.0 km/h 29 % 0.0 mm
19:10 25.8 °C 6.4 °C 1016.8 hPa South 18.5 km/h 18.5 km/h 29 % 0.0 mm
19:15 25.6 °C 6.2 °C 1016.8 hPa South 5.6 km/h 5.6 km/h 29 % 0.0 mm
19:16 25.6 °C 6.2 °C 1016.8 hPa SW 5.8 km/h 5.8 km/h 29 % 0.0 mm
19:21 25.6 °C 6.2 °C 1016.8 hPa East 4.7 km/h 4.7 km/h 29 % 0.0 mm
19:25 19.7 °C 11.2 °C 1017.8 hPa NNE 4.8 km/h 6.4 km/h 58 % 0.0 mm
19:26 25.3 °C 6.4 °C 1015.8 hPa ESE 9.3 km/h 9.3 km/h 30 % 0.0 mm
19:31 25.1 °C 6.3 °C 1015.8 hPa East 9.5 km/h 9.5 km/h 30 % 0.0 mm
19:35 19.8 °C 11.6 °C 1017.8 hPa NNE 4.8 km/h 6.4 km/h 59 % 0.0 mm
19:36 24.8 °C 7.0 °C 1015.8 hPa SE 5.6 km/h 5.6 km/h 32 % 0.0 mm
19:41 24.5 °C 6.7 °C 1014.8 hPa ESE 11.1 km/h 11.1 km/h 32 % 0.0 mm
19:45 19.7 °C 11.4 °C 1018.8 hPa NNE 4.8 km/h 6.4 km/h 59 % 0.0 mm
19:46 24.2 °C 6.9 °C 1014.8 hPa ENE 16.7 km/h 16.7 km/h 33 % 0.0 mm
19:51 23.9 °C 7.9 °C 1014.8 hPa ENE 15.6 km/h 15.6 km/h 36 % 0.0 mm
19:55 19.6 °C 11.4 °C 1018.8 hPa NNE 4.8 km/h 6.4 km/h 59 % 0.0 mm
19:56 23.8 °C 8.2 °C 1015.8 hPa ESE 14.8 km/h 14.8 km/h 37 % 0.0 mm
20:01 23.7 °C 8.6 °C 1015.8 hPa ENE 14.8 km/h 14.8 km/h 38 % 0.0 mm
20:05 19.6 °C 11.4 °C 1018.8 hPa NNE 3.2 km/h 8.0 km/h 59 % 0.0 mm
20:06 23.5 °C 8.3 °C 1015.8 hPa East 9.3 km/h 9.3 km/h 38 % 0.0 mm
20:11 23.3 °C 8.6 °C 1015.8 hPa NNE 20.4 km/h 20.4 km/h 39 % 0.0 mm
20:15 19.6 °C 11.4 °C 1017.8 hPa NNE 3.2 km/h 6.4 km/h 59 % 0.0 mm
20:16 23.2 °C 8.8 °C 1015.8 hPa NE 7.9 km/h 7.9 km/h 40 % 0.0 mm
20:21 23.0 °C 8.7 °C 1015.8 hPa East 11.1 km/h 11.1 km/h 40 % 0.0 mm
20:25 19.4 °C 11.4 °C 1018.8 hPa NNE 1.6 km/h 4.8 km/h 60 % 0.0 mm
20:26 22.9 °C 8.9 °C 1016.8 hPa ENE 11.1 km/h 11.1 km/h 41 % 0.0 mm
20:31 22.8 °C 8.8 °C 1016.8 hPa ESE 9.3 km/h 9.3 km/h 41 % 0.0 mm
20:35 19.2 °C 11.2 °C 1018.8 hPa NNE 1.6 km/h 4.8 km/h 60 % 0.0 mm
20:36 22.7 °C 9.1 °C 1016.8 hPa ENE 16.7 km/h 16.7 km/h 42 % 0.0 mm
20:41 22.6 °C 9.4 °C 1016.8 hPa ESE 9.5 km/h 9.5 km/h 43 % 0.0 mm
20:45 19.1 °C 11.4 °C 1018.8 hPa Calm     61 % 0.0 mm
20:46 22.5 °C 9.3 °C 1016.8 hPa NE 11.1 km/h 11.1 km/h 43 % 0.0 mm
20:51 22.3 °C 9.4 °C 1016.8 hPa ENE 11.1 km/h 11.1 km/h 44 % 0.0 mm
20:55 19.1 °C 11.4 °C 1017.8 hPa NNE 3.2 km/h 3.2 km/h 61 % 0.0 mm
20:56 22.1 °C 9.6 °C 1017.8 hPa ENE 7.4 km/h 7.4 km/h 45 % 0.0 mm
21:01 22.0 °C 9.5 °C 1017.8 hPa NE 7.4 km/h 7.4 km/h 45 % 0.0 mm
21:05 19.1 °C 11.4 °C 1017.8 hPa NNE 4.8 km/h 4.8 km/h 61 % 0.0 mm
21:06 21.8 °C 10.0 °C 1017.8 hPa NNE 9.3 km/h 9.3 km/h 47 % 0.0 mm
21:11 21.7 °C 9.9 °C 1017.8 hPa NE 5.8 km/h 5.8 km/h 47 % 0.0 mm
21:15 19.0 °C 11.3 °C 1017.8 hPa NNE 3.2 km/h 4.8 km/h 61 % 0.0 mm
21:16 21.6 °C 9.8 °C 1017.8 hPa East 9.3 km/h 9.3 km/h 47 % 0.0 mm
21:21 21.4 °C 9.9 °C 1017.8 hPa NNE 9.3 km/h 9.3 km/h 48 % 0.0 mm
21:25 18.7 °C 11.5 °C 1017.8 hPa NNE 1.6 km/h 3.2 km/h 63 % 0.0 mm
21:26 21.3 °C 9.8 °C 1017.8 hPa ENE 13.0 km/h 13.0 km/h 48 % 0.0 mm
21:31 21.2 °C 9.7 °C 1017.8 hPa NNE 9.3 km/h 9.3 km/h 48 % 0.0 mm
21:35 18.5 °C 11.3 °C 1017.8 hPa Calm   3.2 km/h 63 % 0.0 mm
21:36 21.0 °C 9.6 °C 1017.8 hPa NNE 9.3 km/h 9.3 km/h 48 % 0.0 mm
21:41 20.9 °C 9.8 °C 1017.8 hPa NNE 11.9 km/h 11.9 km/h 49 % 0.0 mm
21:45 18.4 °C 11.2 °C 1017.8 hPa NNE 3.2 km/h 4.8 km/h 63 % 0.0 mm
21:46 20.9 °C 10.1 °C 1017.8 hPa ENE 9.3 km/h 9.3 km/h 50 % 0.0 mm
21:51 20.8 °C 10.0 °C 1017.8 hPa NE 14.5 km/h 14.5 km/h 50 % 0.0 mm
21:55 18.3 °C 11.1 °C 1017.8 hPa NNE 1.6 km/h 3.2 km/h 63 % 0.0 mm
21:56 20.7 °C 9.9 °C 1018.8 hPa ENE 11.1 km/h 11.1 km/h 50 % 0.0 mm
22:01 20.6 °C 9.8 °C 1018.8 hPa NNE 9.3 km/h 9.3 km/h 50 % 0.0 mm
22:05 18.2 °C 11.1 °C 1017.8 hPa NE 1.6 km/h 4.8 km/h 63 % 0.0 mm
22:06 20.6 °C 10.1 °C 1018.8 hPa NE 9.3 km/h 9.3 km/h 51 % 0.0 mm
22:11 20.5 °C 10.0 °C 1017.8 hPa ENE 9.3 km/h 9.3 km/h 51 % 0.0 mm
22:15 18.0 °C 10.8 °C 1017.8 hPa NNE 1.6 km/h 6.4 km/h 63 % 0.0 mm
22:16 20.5 °C 10.0 °C 1017.8 hPa NE 7.4 km/h 7.4 km/h 51 % 0.0 mm
22:21 20.4 °C 9.9 °C 1017.8 hPa NNE 9.3 km/h 9.3 km/h 51 % 0.0 mm
22:25 17.8 °C 10.7 °C 1017.8 hPa North 1.6 km/h 6.4 km/h 63 % 0.0 mm
22:26 20.4 °C 10.2 °C 1017.8 hPa NNE 9.3 km/h 9.3 km/h 52 % 0.0 mm
22:31 20.3 °C 10.1 °C 1017.8 hPa NNE 9.3 km/h 9.3 km/h 52 % 0.0 mm
22:35 17.6 °C 10.4 °C 1017.8 hPa NW 1.6 km/h 3.2 km/h 63 % 0.0 mm
22:36 20.3 °C 10.1 °C 1017.8 hPa NNW 7.4 km/h 7.4 km/h 52 % 0.0 mm
22:41 20.2 °C 10.0 °C 1018.8 hPa ENE 7.4 km/h 7.4 km/h 52 % 0.0 mm
22:45 17.5 °C 10.6 °C 1017.8 hPa Calm   1.6 km/h 64 % 0.0 mm
22:46 20.2 °C 10.3 °C 1018.8 hPa NNE 7.4 km/h 7.4 km/h 53 % 0.0 mm
22:51 20.2 °C 10.3 °C 1018.8 hPa NNE 5.6 km/h 5.8 km/h 53 % 0.0 mm
22:55 17.3 °C 10.4 °C 1017.8 hPa Calm   1.6 km/h 64 % 0.0 mm
22:56 20.1 °C 10.2 °C 1018.8 hPa North 7.4 km/h 7.4 km/h 53 % 0.0 mm
23:01 20.1 °C 10.5 °C 1018.8 hPa NNE 5.6 km/h 5.6 km/h 54 % 0.0 mm
23:05 17.2 °C 10.3 °C 1017.8 hPa West 1.6 km/h 1.6 km/h 64 % 0.0 mm
23:06 20.1 °C 10.5 °C 1018.8 hPa NNE 7.4 km/h 7.4 km/h 54 % 0.0 mm
23:11 20.1 °C 10.5 °C 1018.8 hPa NNW 9.3 km/h 9.3 km/h 54 % 0.0 mm
23:15 17.1 °C 10.4 °C 1017.8 hPa Calm   1.6 km/h 65 % 0.0 mm
23:16 20.0 °C 10.4 °C 1018.8 hPa NNE 9.3 km/h 9.3 km/h 54 % 0.0 mm
23:21 20.0 °C 10.7 °C 1018.8 hPa NNE 9.3 km/h 9.3 km/h 55 % 0.0 mm
23:25 16.9 °C 10.5 °C 1017.8 hPa NW 1.6 km/h 3.2 km/h 66 % 0.0 mm
23:26 20.0 °C 10.7 °C 1018.8 hPa NNE 11.1 km/h 11.1 km/h 55 % 0.0 mm
23:31 20.0 °C 10.7 °C 1018.8 hPa NNE 9.3 km/h 9.3 km/h 55 % 0.0 mm
23:36 19.9 °C 10.8 °C 1018.8 hPa NNE 9.3 km/h 9.3 km/h 56 % 0.0 mm
23:41 19.9 °C 10.8 °C 1018.8 hPa NE 7.4 km/h 7.4 km/h 56 % 0.0 mm
23:45 16.5 °C 10.6 °C 1017.8 hPa WSW 1.6 km/h 3.2 km/h 68 % 0.0 mm
23:46 19.9 °C 10.8 °C 1018.8 hPa NNE 7.4 km/h 7.4 km/h 56 % 0.0 mm
23:51 19.9 °C 10.8 °C 1018.8 hPa NNE 7.4 km/h 7.4 km/h 56 % 0.0 mm
23:55 16.3 °C 10.4 °C 1016.8 hPa WSW 1.6 km/h 3.2 km/h 68 % 0.0 mm
23:56 19.8 °C 10.8 °C 1018.8 hPa NE 7.4 km/h 7.4 km/h 56 % 0.0 mm
Meteo Sesrovires
Elogis d' Weather Underground - 3.75 mb

Guio original per  Jim McMurry - jmcmurry@mwt.net Adaptat per a la plantilla per  Wim van der Kuil - Leuven-Template.eu

Trobareu la nostra informacio del temps tambe a:

Weather Underground

AWEKAS